createdAt,value
2022-10-17T00:01:08.257Z,100.00
2022-10-17T00:06:12.936Z,100.00
2022-10-17T00:11:18.848Z,100.00
2022-10-17T00:16:29.019Z,100.00
2022-10-17T00:21:30.904Z,100.00
2022-10-17T00:26:32.614Z,100.00
2022-10-17T00:31:35.570Z,100.00
2022-10-17T00:36:37.575Z,100.00
2022-10-17T00:41:39.429Z,100.00
2022-10-17T00:46:40.944Z,100.00
2022-10-17T00:51:50.070Z,100.00
2022-10-17T00:56:52.455Z,100.00
2022-10-17T01:02:01.901Z,100.00
2022-10-17T01:07:03.358Z,100.00
2022-10-17T01:12:14.057Z,100.00
2022-10-17T01:17:31.658Z,100.00
2022-10-17T01:22:41.615Z,100.00
2022-10-17T01:27:42.952Z,100.00
2022-10-17T01:32:55.112Z,100.00
2022-10-17T01:38:10.265Z,100.00
2022-10-17T01:43:45.205Z,100.00
2022-10-17T01:48:46.753Z,100.00
2022-10-17T01:54:00.866Z,100.00
2022-10-17T01:59:15.039Z,100.00
2022-10-17T02:04:16.531Z,100.00
2022-10-17T02:09:20.860Z,100.00
2022-10-17T02:14:41.016Z,100.00
2022-10-17T02:20:16.302Z,100.00
2022-10-17T02:25:28.032Z,100.00
2022-10-17T02:30:41.835Z,100.00
2022-10-17T02:35:47.758Z,100.00
2022-10-17T02:40:51.500Z,100.00
2022-10-17T02:45:53.980Z,100.00
2022-10-17T02:51:25.820Z,100.00
2022-10-17T02:56:30.884Z,100.00
2022-10-17T03:01:32.624Z,100.00
2022-10-17T03:06:34.126Z,100.00
2022-10-17T03:11:35.532Z,100.00
2022-10-17T03:16:36.991Z,100.00
2022-10-17T03:21:38.474Z,100.00
2022-10-17T03:26:39.968Z,100.00
2022-10-17T03:31:41.448Z,100.00
2022-10-17T03:36:43.544Z,100.00
2022-10-17T03:41:44.952Z,100.00
2022-10-17T03:46:46.512Z,100.00
2022-10-17T03:51:47.957Z,100.00
2022-10-17T03:56:49.509Z,100.00
2022-10-17T04:01:50.980Z,100.00
2022-10-17T04:06:52.395Z,100.00
2022-10-17T04:11:53.818Z,100.00
2022-10-17T04:16:55.324Z,100.00
2022-10-17T04:21:56.770Z,100.00
2022-10-17T04:26:58.269Z,100.00
2022-10-17T04:31:59.746Z,100.00
2022-10-17T04:37:01.179Z,100.00
2022-10-17T04:42:02.631Z,100.00
2022-10-17T04:47:04.593Z,100.00
2022-10-17T04:52:06.033Z,100.00
2022-10-17T04:57:07.503Z,100.00
2022-10-17T05:02:09.019Z,100.00
2022-10-17T05:07:10.599Z,100.00
2022-10-17T05:12:12.061Z,100.00
2022-10-17T05:17:13.466Z,100.00
2022-10-17T05:22:15.113Z,100.00
2022-10-17T05:27:16.561Z,100.00
2022-10-17T05:32:18.013Z,100.00
2022-10-17T05:37:19.444Z,100.00
2022-10-17T05:42:21.173Z,100.00
2022-10-17T05:47:22.721Z,100.00
2022-10-17T05:52:24.164Z,100.00
2022-10-17T05:57:26.559Z,100.00
2022-10-17T06:02:28.342Z,100.00
2022-10-17T06:07:30.156Z,100.00
2022-10-17T06:12:31.836Z,100.00
2022-10-17T06:17:33.514Z,100.00
2022-10-17T06:22:34.971Z,100.00
2022-10-17T06:27:36.430Z,100.00
2022-10-17T06:32:37.848Z,100.00
2022-10-17T06:37:39.577Z,100.00
2022-10-17T06:42:41.736Z,100.00
2022-10-17T06:47:43.225Z,100.00
2022-10-17T06:52:44.648Z,100.00
2022-10-17T06:57:46.120Z,100.00
2022-10-17T07:02:47.537Z,100.00
2022-10-17T07:07:51.749Z,100.00
2022-10-17T07:12:53.284Z,100.00
2022-10-17T07:17:54.708Z,100.00
2022-10-17T07:22:56.219Z,100.00
2022-10-17T07:27:57.707Z,100.00
2022-10-17T07:32:59.132Z,100.00
2022-10-17T07:38:00.558Z,100.00
2022-10-17T07:43:01.999Z,100.00
2022-10-17T07:48:03.605Z,100.00
2022-10-17T07:53:05.057Z,100.00
2022-10-17T07:58:08.941Z,100.00
2022-10-17T08:03:11.439Z,100.00
2022-10-17T08:08:12.960Z,100.00
2022-10-17T08:13:14.383Z,100.00
2022-10-17T08:18:15.989Z,100.00
2022-10-17T08:23:17.447Z,100.00
2022-10-17T08:28:18.868Z,100.00
2022-10-17T08:33:20.318Z,100.00
2022-10-17T08:38:23.286Z,100.00
2022-10-17T08:43:37.735Z,100.00
2022-10-17T08:48:46.591Z,100.00
2022-10-17T08:53:53.787Z,100.00
2022-10-17T08:58:55.298Z,100.00
2022-10-17T09:04:16.092Z,100.00
2022-10-17T09:09:28.004Z,100.00
2022-10-17T09:15:02.998Z,100.00
2022-10-17T09:20:19.765Z,100.00
2022-10-17T09:25:21.763Z,100.00
2022-10-17T09:30:46.192Z,96.55
2022-10-17T09:35:49.945Z,95.92
2022-10-17T09:40:57.215Z,98.03
2022-10-17T09:46:15.970Z,95.94
2022-10-17T09:51:25.762Z,91.34
2022-10-17T09:56:27.775Z,90.41
2022-10-17T10:01:31.426Z,90.71
2022-10-17T10:06:32.928Z,84.85
2022-10-17T10:11:49.871Z,73.87
2022-10-17T10:16:53.710Z,72.56
2022-10-17T10:21:58.691Z,71.74
2022-10-17T10:27:03.173Z,74.99
2022-10-17T10:32:16.385Z,78.13
2022-10-17T10:37:30.757Z,82.00
2022-10-17T10:42:39.470Z,79.42
2022-10-17T10:47:51.704Z,78.63
2022-10-17T10:53:34.211Z,71.78
2022-10-17T10:58:48.541Z,73.28
2022-10-17T11:04:04.942Z,79.27
2022-10-17T11:09:32.974Z,87.34
2022-10-17T11:14:47.935Z,91.83
2022-10-17T11:20:15.201Z,95.13
2022-10-17T11:25:40.281Z,98.28
2022-10-17T11:31:13.226Z,100.00
2022-10-17T11:36:17.984Z,100.00
2022-10-17T11:41:29.825Z,100.00
2022-10-17T11:46:36.056Z,100.00
2022-10-17T11:52:04.239Z,100.00
2022-10-17T11:57:19.872Z,100.00
2022-10-17T12:02:32.999Z,100.00
2022-10-17T12:07:56.354Z,100.00
2022-10-17T12:12:57.906Z,100.00
2022-10-17T12:18:04.051Z,100.00
2022-10-17T12:23:11.600Z,100.00
2022-10-17T12:28:16.812Z,100.00
2022-10-17T12:33:27.828Z,100.00
2022-10-17T12:38:29.321Z,100.00
2022-10-17T12:43:30.781Z,100.00
2022-10-17T12:48:38.475Z,100.00
2022-10-17T12:53:43.506Z,100.00
2022-10-17T12:58:48.673Z,100.00
2022-10-17T13:03:52.482Z,100.00
2022-10-17T13:09:20.744Z,100.00
2022-10-17T13:14:24.489Z,100.00
2022-10-17T13:19:30.169Z,100.00
2022-10-17T13:24:32.948Z,100.00
2022-10-17T13:29:34.577Z,100.00
2022-10-17T13:34:36.146Z,100.00
2022-10-17T13:39:55.248Z,100.00
2022-10-17T13:44:59.118Z,100.00
2022-10-17T13:50:00.991Z,100.00
2022-10-17T13:55:14.208Z,100.00
2022-10-17T14:00:28.221Z,100.00
2022-10-17T14:05:29.742Z,100.00
2022-10-17T14:10:32.866Z,100.00
2022-10-17T14:15:36.629Z,100.00
2022-10-17T14:21:19.732Z,100.00
2022-10-17T14:26:12.314Z,100.00
2022-10-17T14:31:25.414Z,100.00
2022-10-17T14:36:51.262Z,100.00
2022-10-17T14:41:53.795Z,100.00
2022-10-17T14:47:38.190Z,100.00
2022-10-17T14:52:31.541Z,100.00
2022-10-17T14:57:33.214Z,100.00
2022-10-17T15:02:34.869Z,100.00
2022-10-17T15:07:36.298Z,100.00
2022-10-17T15:12:37.713Z,100.00
2022-10-17T15:17:39.339Z,100.00
2022-10-17T15:22:40.808Z,100.00
2022-10-17T15:27:42.300Z,100.00
2022-10-17T15:32:43.773Z,100.00
2022-10-17T15:37:46.776Z,100.00
2022-10-17T15:42:48.393Z,100.00
2022-10-17T15:47:52.792Z,100.00
2022-10-17T15:52:54.244Z,100.00
2022-10-17T15:57:55.824Z,100.00
2022-10-17T16:02:57.325Z,100.00
2022-10-17T16:07:58.759Z,100.00
2022-10-17T16:13:00.175Z,100.00
2022-10-17T16:18:04.285Z,100.00
2022-10-17T16:23:08.419Z,100.00
2022-10-17T16:28:11.784Z,100.00
2022-10-17T16:33:13.377Z,100.00
2022-10-17T16:38:16.064Z,100.00
2022-10-17T16:43:17.538Z,100.00
2022-10-17T16:48:26.162Z,100.00
2022-10-17T16:53:30.934Z,100.00
2022-10-17T16:58:32.402Z,100.00
2022-10-17T17:03:37.967Z,100.00
2022-10-17T17:08:40.281Z,100.00
2022-10-17T17:13:41.772Z,100.00
2022-10-17T17:18:43.445Z,100.00
2022-10-17T17:23:44.961Z,100.00
2022-10-17T17:28:47.335Z,100.00
2022-10-17T17:33:49.191Z,100.00
2022-10-17T17:38:53.435Z,100.00
2022-10-17T17:43:55.719Z,100.00
2022-10-17T17:48:57.190Z,100.00
2022-10-17T17:53:58.669Z,100.00
2022-10-17T17:59:02.359Z,100.00
2022-10-17T18:04:05.750Z,100.00
2022-10-17T18:09:07.980Z,100.00
2022-10-17T18:14:12.569Z,100.00
2022-10-17T18:19:14.068Z,100.00
2022-10-17T18:24:15.652Z,100.00
2022-10-17T18:29:17.206Z,100.00
2022-10-17T18:34:18.660Z,100.00
2022-10-17T18:39:20.516Z,100.00
2022-10-17T18:44:21.947Z,100.00
2022-10-17T18:49:23.493Z,100.00
2022-10-17T18:54:24.904Z,100.00
2022-10-17T18:59:26.433Z,100.00
2022-10-17T19:04:27.950Z,100.00
2022-10-17T19:09:29.574Z,100.00
2022-10-17T19:14:31.345Z,100.00
2022-10-17T19:19:33.342Z,100.00
2022-10-17T19:24:35.132Z,100.00
2022-10-17T19:29:36.547Z,100.00
2022-10-17T19:34:38.201Z,100.00
2022-10-17T19:39:39.692Z,100.00
2022-10-17T19:44:41.095Z,100.00
2022-10-17T19:49:46.485Z,100.00
2022-10-17T19:54:50.531Z,100.00
2022-10-17T19:59:53.742Z,100.00
2022-10-17T20:05:13.932Z,100.00
2022-10-17T20:10:18.922Z,100.00
2022-10-17T20:15:20.421Z,100.00
2022-10-17T20:20:22.117Z,100.00
2022-10-17T20:25:23.579Z,100.00
2022-10-17T20:30:25.115Z,100.00
2022-10-17T20:35:26.580Z,100.00
2022-10-17T20:40:35.847Z,100.00
2022-10-17T20:45:50.714Z,100.00
2022-10-17T20:50:53.733Z,100.00
2022-10-17T20:56:17.050Z,100.00
2022-10-17T21:01:18.721Z,100.00
2022-10-17T21:06:21.073Z,100.00
2022-10-17T21:11:24.875Z,100.00
2022-10-17T21:16:27.535Z,100.00
2022-10-17T21:21:40.893Z,100.00
2022-10-17T21:26:43.897Z,100.00
2022-10-17T21:31:45.416Z,100.00
2022-10-17T21:36:48.070Z,100.00
2022-10-17T21:41:49.504Z,100.00
2022-10-17T21:46:51.982Z,100.00
2022-10-17T21:51:53.656Z,100.00
2022-10-17T21:56:55.059Z,100.00
2022-10-17T22:01:56.498Z,100.00
2022-10-17T22:06:57.989Z,100.00
2022-10-17T22:11:59.462Z,100.00
2022-10-17T22:17:01.568Z,100.00
2022-10-17T22:22:02.996Z,100.00
2022-10-17T22:27:04.708Z,100.00
2022-10-17T22:32:06.156Z,100.00
2022-10-17T22:37:07.624Z,100.00
2022-10-17T22:42:09.140Z,100.00
2022-10-17T22:47:10.607Z,100.00
2022-10-17T22:52:12.112Z,100.00
2022-10-17T22:57:13.541Z,100.00
2022-10-17T23:02:14.959Z,100.00
2022-10-17T23:07:16.417Z,100.00
2022-10-17T23:12:17.977Z,100.00
2022-10-17T23:17:19.373Z,100.00
2022-10-17T23:22:20.783Z,100.00
2022-10-17T23:27:22.249Z,100.00
2022-10-17T23:32:23.708Z,100.00
2022-10-17T23:37:25.161Z,100.00
2022-10-17T23:42:27.116Z,100.00
2022-10-17T23:47:28.865Z,100.00
2022-10-17T23:52:31.011Z,100.00
2022-10-17T23:57:32.824Z,100.00
